sensor_id;sensor_type;location;lat;lon;timestamp;P1;durP1;ratioP1;P2;durP2;ratioP2
65077;SDS011;51672;51.230;-2.322;2022-07-01T00:01:10;5.00;;;1.70;;
65077;SDS011;51672;51.230;-2.322;2022-07-01T00:04:52;4.37;;;1.50;;
65077;SDS011;51672;51.230;-2.322;2022-07-01T00:08:33;6.40;;;1.38;;
65077;SDS011;51672;51.230;-2.322;2022-07-01T00:12:15;6.13;;;1.55;;
65077;SDS011;51672;51.230;-2.322;2022-07-01T00:15:57;5.38;;;1.75;;
65077;SDS011;51672;51.230;-2.322;2022-07-01T00:19:39;4.95;;;2.03;;
65077;SDS011;51672;51.230;-2.322;2022-07-01T00:23:22;8.02;;;1.92;;
65077;SDS011;51672;51.230;-2.322;2022-07-01T00:27:04;5.78;;;1.83;;
65077;SDS011;51672;51.230;-2.322;2022-07-01T00:30:47;5.87;;;1.80;;
65077;SDS011;51672;51.230;-2.322;2022-07-01T00:34:29;5.32;;;1.85;;
65077;SDS011;51672;51.230;-2.322;2022-07-01T00:38:10;3.85;;;1.60;;
65077;SDS011;51672;51.230;-2.322;2022-07-01T00:41:53;6.00;;;1.53;;
65077;SDS011;51672;51.230;-2.322;2022-07-01T00:45:42;5.32;;;1.88;;
65077;SDS011;51672;51.230;-2.322;2022-07-01T00:49:28;5.80;;;1.67;;
65077;SDS011;51672;51.230;-2.322;2022-07-01T00:53:11;8.07;;;1.70;;
65077;SDS011;51672;51.230;-2.322;2022-07-01T00:56:53;3.63;;;1.50;;
65077;SDS011;51672;51.230;-2.322;2022-07-01T01:00:37;4.38;;;1.52;;
65077;SDS011;51672;51.230;-2.322;2022-07-01T01:04:23;5.72;;;1.80;;
65077;SDS011;51672;51.230;-2.322;2022-07-01T01:08:05;6.53;;;1.97;;
65077;SDS011;51672;51.230;-2.322;2022-07-01T01:11:49;5.50;;;1.40;;
65077;SDS011;51672;51.230;-2.322;2022-07-01T01:15:32;6.90;;;1.35;;
65077;SDS011;51672;51.230;-2.322;2022-07-01T01:19:14;4.57;;;1.50;;
65077;SDS011;51672;51.230;-2.322;2022-07-01T01:22:56;4.85;;;1.50;;
65077;SDS011;51672;51.230;-2.322;2022-07-01T01:26:38;5.22;;;1.52;;
65077;SDS011;51672;51.230;-2.322;2022-07-01T01:30:20;18.55;;;7.57;;
65077;SDS011;51672;51.230;-2.322;2022-07-01T01:34:02;14.98;;;6.03;;
65077;SDS011;51672;51.230;-2.322;2022-07-01T01:37:44;7.20;;;1.70;;
65077;SDS011;51672;51.230;-2.322;2022-07-01T01:41:26;3.92;;;1.35;;
65077;SDS011;51672;51.230;-2.322;2022-07-01T01:45:08;4.23;;;1.40;;
65077;SDS011;51672;51.230;-2.322;2022-07-01T01:48:51;5.32;;;1.70;;
65077;SDS011;51672;51.230;-2.322;2022-07-01T01:52:33;7.80;;;1.40;;
65077;SDS011;51672;51.230;-2.322;2022-07-01T01:56:15;7.10;;;1.70;;
65077;SDS011;51672;51.230;-2.322;2022-07-01T01:59:57;5.82;;;1.60;;
65077;SDS011;51672;51.230;-2.322;2022-07-01T02:03:40;5.68;;;1.50;;
65077;SDS011;51672;51.230;-2.322;2022-07-01T02:07:23;5.47;;;1.42;;
65077;SDS011;51672;51.230;-2.322;2022-07-01T02:11:06;6.68;;;1.70;;
65077;SDS011;51672;51.230;-2.322;2022-07-01T02:14:48;6.20;;;1.90;;
65077;SDS011;51672;51.230;-2.322;2022-07-01T02:18:31;7.88;;;1.80;;
65077;SDS011;51672;51.230;-2.322;2022-07-01T02:22:16;8.57;;;1.60;;
65077;SDS011;51672;51.230;-2.322;2022-07-01T02:25:58;6.93;;;1.70;;
65077;SDS011;51672;51.230;-2.322;2022-07-01T02:29:40;8.88;;;1.60;;
65077;SDS011;51672;51.230;-2.322;2022-07-01T02:33:38;6.47;;;1.93;;
65077;SDS011;51672;51.230;-2.322;2022-07-01T02:37:21;8.35;;;1.80;;
65077;SDS011;51672;51.230;-2.322;2022-07-01T02:41:02;5.05;;;1.98;;
65077;SDS011;51672;51.230;-2.322;2022-07-01T02:44:45;7.18;;;2.15;;
65077;SDS011;51672;51.230;-2.322;2022-07-01T02:48:27;6.07;;;1.80;;
65077;SDS011;51672;51.230;-2.322;2022-07-01T02:52:09;6.22;;;1.80;;
65077;SDS011;51672;51.230;-2.322;2022-07-01T02:55:51;5.97;;;1.98;;
65077;SDS011;51672;51.230;-2.322;2022-07-01T02:59:33;9.93;;;2.00;;
65077;SDS011;51672;51.230;-2.322;2022-07-01T03:03:14;5.10;;;1.90;;
65077;SDS011;51672;51.230;-2.322;2022-07-01T03:06:56;7.00;;;2.10;;
65077;SDS011;51672;51.230;-2.322;2022-07-01T03:10:39;7.73;;;2.10;;
65077;SDS011;51672;51.230;-2.322;2022-07-01T03:14:21;5.40;;;1.90;;
65077;SDS011;51672;51.230;-2.322;2022-07-01T03:18:03;6.13;;;1.80;;
65077;SDS011;51672;51.230;-2.322;2022-07-01T03:21:45;5.88;;;1.90;;
65077;SDS011;51672;51.230;-2.322;2022-07-01T03:25:27;8.82;;;1.83;;
65077;SDS011;51672;51.230;-2.322;2022-07-01T03:29:09;6.55;;;2.00;;
65077;SDS011;51672;51.230;-2.322;2022-07-01T03:32:51;7.25;;;2.30;;
65077;SDS011;51672;51.230;-2.322;2022-07-01T03:36:33;7.50;;;2.30;;
65077;SDS011;51672;51.230;-2.322;2022-07-01T03:40:17;5.30;;;1.90;;
65077;SDS011;51672;51.230;-2.322;2022-07-01T03:43:59;5.72;;;1.85;;
65077;SDS011;51672;51.230;-2.322;2022-07-01T03:47:45;5.60;;;2.03;;
65077;SDS011;51672;51.230;-2.322;2022-07-01T03:51:28;4.82;;;1.70;;
65077;SDS011;51672;51.230;-2.322;2022-07-01T03:55:10;6.97;;;1.88;;
65077;SDS011;51672;51.230;-2.322;2022-07-01T03:58:52;9.05;;;2.03;;
65077;SDS011;51672;51.230;-2.322;2022-07-01T04:02:34;7.90;;;2.10;;
65077;SDS011;51672;51.230;-2.322;2022-07-01T04:06:17;5.85;;;1.83;;
65077;SDS011;51672;51.230;-2.322;2022-07-01T04:09:59;5.95;;;1.98;;
65077;SDS011;51672;51.230;-2.322;2022-07-01T04:13:41;6.93;;;1.67;;
65077;SDS011;51672;51.230;-2.322;2022-07-01T04:17:31;6.07;;;2.25;;
65077;SDS011;51672;51.230;-2.322;2022-07-01T04:21:13;5.65;;;1.83;;
65077;SDS011;51672;51.230;-2.322;2022-07-01T04:25:18;4.23;;;1.63;;
65077;SDS011;51672;51.230;-2.322;2022-07-01T04:29:00;6.55;;;1.70;;
65077;SDS011;51672;51.230;-2.322;2022-07-01T04:32:49;7.03;;;1.70;;
65077;SDS011;51672;51.230;-2.322;2022-07-01T04:36:31;6.65;;;1.63;;
65077;SDS011;51672;51.230;-2.322;2022-07-01T04:40:14;7.63;;;2.15;;
65077;SDS011;51672;51.230;-2.322;2022-07-01T04:44:04;6.73;;;1.50;;
65077;SDS011;51672;51.230;-2.322;2022-07-01T04:47:47;7.88;;;2.47;;
65077;SDS011;51672;51.230;-2.322;2022-07-01T04:51:29;5.25;;;1.70;;
65077;SDS011;51672;51.230;-2.322;2022-07-01T04:55:20;5.23;;;1.80;;
65077;SDS011;51672;51.230;-2.322;2022-07-01T04:59:03;3.75;;;1.40;;
65077;SDS011;51672;51.230;-2.322;2022-07-01T05:02:45;6.10;;;1.70;;
65077;SDS011;51672;51.230;-2.322;2022-07-01T05:06:36;6.35;;;1.48;;
65077;SDS011;51672;51.230;-2.322;2022-07-01T05:10:19;10.68;;;2.47;;
65077;SDS011;51672;51.230;-2.322;2022-07-01T05:14:01;8.07;;;1.73;;
65077;SDS011;51672;51.230;-2.322;2022-07-01T05:17:53;5.60;;;1.65;;
65077;SDS011;51672;51.230;-2.322;2022-07-01T05:21:55;7.83;;;1.60;;
65077;SDS011;51672;51.230;-2.322;2022-07-01T05:25:45;4.63;;;1.58;;
65077;SDS011;51672;51.230;-2.322;2022-07-01T05:29:28;8.82;;;1.90;;
65077;SDS011;51672;51.230;-2.322;2022-07-01T05:33:10;8.93;;;1.67;;
65077;SDS011;51672;51.230;-2.322;2022-07-01T05:40:43;6.10;;;1.63;;
65077;SDS011;51672;51.230;-2.322;2022-07-01T05:44:25;8.70;;;1.80;;
65077;SDS011;51672;51.230;-2.322;2022-07-01T05:48:17;6.80;;;1.25;;
65077;SDS011;51672;51.230;-2.322;2022-07-01T05:51:59;6.80;;;1.60;;
65077;SDS011;51672;51.230;-2.322;2022-07-01T05:55:42;6.78;;;1.60;;
65077;SDS011;51672;51.230;-2.322;2022-07-01T05:59:32;7.33;;;1.53;;
65077;SDS011;51672;51.230;-2.322;2022-07-01T06:03:15;6.22;;;1.80;;
65077;SDS011;51672;51.230;-2.322;2022-07-01T06:06:57;6.55;;;1.20;;
65077;SDS011;51672;51.230;-2.322;2022-07-01T06:14:31;6.22;;;1.40;;
65077;SDS011;51672;51.230;-2.322;2022-07-01T06:18:13;5.63;;;1.40;;
65077;SDS011;51672;51.230;-2.322;2022-07-01T06:25:46;7.03;;;1.40;;
65077;SDS011;51672;51.230;-2.322;2022-07-01T06:29:28;5.28;;;1.42;;
65077;SDS011;51672;51.230;-2.322;2022-07-01T06:33:21;4.85;;;1.10;;
65077;SDS011;51672;51.230;-2.322;2022-07-01T06:37:04;8.77;;;1.30;;
65077;SDS011;51672;51.230;-2.322;2022-07-01T06:40:46;7.22;;;1.25;;
65077;SDS011;51672;51.230;-2.322;2022-07-01T06:44:55;7.22;;;1.40;;
65077;SDS011;51672;51.230;-2.322;2022-07-01T06:52:48;6.63;;;1.33;;
65077;SDS011;51672;51.230;-2.322;2022-07-01T06:56:30;7.53;;;1.50;;
65077;SDS011;51672;51.230;-2.322;2022-07-01T07:00:21;6.82;;;1.45;;
65077;SDS011;51672;51.230;-2.322;2022-07-01T07:04:03;6.45;;;1.60;;
65077;SDS011;51672;51.230;-2.322;2022-07-01T07:07:46;7.55;;;1.30;;
65077;SDS011;51672;51.230;-2.322;2022-07-01T07:11:37;8.60;;;1.63;;
65077;SDS011;51672;51.230;-2.322;2022-07-01T07:15:19;5.67;;;1.30;;
65077;SDS011;51672;51.230;-2.322;2022-07-01T07:19:05;7.07;;;1.52;;
65077;SDS011;51672;51.230;-2.322;2022-07-01T07:22:55;7.40;;;1.20;;
65077;SDS011;51672;51.230;-2.322;2022-07-01T07:26:38;6.03;;;1.27;;
65077;SDS011;51672;51.230;-2.322;2022-07-01T07:34:29;6.60;;;1.45;;
65077;SDS011;51672;51.230;-2.322;2022-07-01T07:42:24;8.20;;;1.45;;
65077;SDS011;51672;51.230;-2.322;2022-07-01T07:54:45;6.83;;;1.30;;
65077;SDS011;51672;51.230;-2.322;2022-07-01T08:07:09;7.00;;;1.00;;
65077;SDS011;51672;51.230;-2.322;2022-07-01T08:15:20;8.75;;;1.50;;
65077;SDS011;51672;51.230;-2.322;2022-07-01T08:19:13;8.68;;;1.20;;
65077;SDS011;51672;51.230;-2.322;2022-07-01T08:23:11;6.68;;;1.08;;
65077;SDS011;51672;51.230;-2.322;2022-07-01T08:35:37;5.53;;;1.30;;
65077;SDS011;51672;51.230;-2.322;2022-07-01T08:39:28;6.50;;;1.27;;
65077;SDS011;51672;51.230;-2.322;2022-07-01T08:43:10;5.15;;;1.13;;
65077;SDS011;51672;51.230;-2.322;2022-07-01T08:46:58;6.10;;;1.03;;
65077;SDS011;51672;51.230;-2.322;2022-07-01T08:50:48;5.45;;;1.23;;
65077;SDS011;51672;51.230;-2.322;2022-07-01T08:58:40;4.75;;;1.13;;
65077;SDS011;51672;51.230;-2.322;2022-07-01T09:06:51;4.50;;;0.90;;
65077;SDS011;51672;51.230;-2.322;2022-07-01T09:14:43;8.55;;;1.08;;
65077;SDS011;51672;51.230;-2.322;2022-07-01T09:22:37;4.82;;;0.90;;
65077;SDS011;51672;51.230;-2.322;2022-07-01T09:26:53;5.82;;;0.95;;
65077;SDS011;51672;51.230;-2.322;2022-07-01T09:35:02;4.43;;;1.20;;
65077;SDS011;51672;51.230;-2.322;2022-07-01T09:39:11;5.32;;;1.13;;
65077;SDS011;51672;51.230;-2.322;2022-07-01T09:43:22;4.53;;;1.13;;
65077;SDS011;51672;51.230;-2.322;2022-07-01T09:47:24;3.83;;;1.00;;
65077;SDS011;51672;51.230;-2.322;2022-07-01T09:55:39;5.07;;;0.98;;
65077;SDS011;51672;51.230;-2.322;2022-07-01T09:59:28;3.73;;;0.97;;
65077;SDS011;51672;51.230;-2.322;2022-07-01T10:03:11;4.88;;;1.23;;
65077;SDS011;51672;51.230;-2.322;2022-07-01T10:15:35;9.03;;;0.70;;
65077;SDS011;51672;51.230;-2.322;2022-07-01T10:19:45;4.03;;;0.90;;
65077;SDS011;51672;51.230;-2.322;2022-07-01T10:32:09;3.50;;;0.70;;
65077;SDS011;51672;51.230;-2.322;2022-07-01T10:36:38;4.30;;;0.65;;
65077;SDS011;51672;51.230;-2.322;2022-07-01T10:40:21;3.83;;;1.03;;
65077;SDS011;51672;51.230;-2.322;2022-07-01T10:44:32;4.80;;;1.05;;
65077;SDS011;51672;51.230;-2.322;2022-07-01T10:56:53;5.45;;;0.90;;
65077;SDS011;51672;51.230;-2.322;2022-07-01T11:08:31;5.07;;;0.80;;
65077;SDS011;51672;51.230;-2.322;2022-07-01T11:16:45;3.58;;;0.85;;
65077;SDS011;51672;51.230;-2.322;2022-07-01T11:20:35;3.07;;;0.90;;
65077;SDS011;51672;51.230;-2.322;2022-07-01T11:24:18;3.75;;;0.60;;
65077;SDS011;51672;51.230;-2.322;2022-07-01T11:28:27;3.55;;;0.50;;
65077;SDS011;51672;51.230;-2.322;2022-07-01T11:32:10;3.90;;;1.25;;
65077;SDS011;51672;51.230;-2.322;2022-07-01T11:40:20;3.83;;;0.52;;
65077;SDS011;51672;51.230;-2.322;2022-07-01T11:47:55;3.87;;;0.60;;
65077;SDS011;51672;51.230;-2.322;2022-07-01T11:51:41;4.07;;;1.10;;
65077;SDS011;51672;51.230;-2.322;2022-07-01T12:04:02;4.38;;;1.13;;
65077;SDS011;51672;51.230;-2.322;2022-07-01T12:07:55;4.60;;;1.02;;
65077;SDS011;51672;51.230;-2.322;2022-07-01T12:29:58;5.37;;;0.83;;
65077;SDS011;51672;51.230;-2.322;2022-07-01T12:33:49;3.53;;;0.95;;
65077;SDS011;51672;51.230;-2.322;2022-07-01T12:42:25;3.97;;;1.03;;
65077;SDS011;51672;51.230;-2.322;2022-07-01T12:46:12;3.63;;;0.73;;
65077;SDS011;51672;51.230;-2.322;2022-07-01T12:50:14;2.17;;;0.60;;
65077;SDS011;51672;51.230;-2.322;2022-07-01T12:57:48;4.65;;;1.10;;
65077;SDS011;51672;51.230;-2.322;2022-07-01T13:01:58;4.25;;;0.52;;
65077;SDS011;51672;51.230;-2.322;2022-07-01T13:15:01;4.18;;;0.70;;
65077;SDS011;51672;51.230;-2.322;2022-07-01T13:28:11;4.47;;;0.60;;
65077;SDS011;51672;51.230;-2.322;2022-07-01T14:35:01;3.53;;;0.50;;
65077;SDS011;51672;51.230;-2.322;2022-07-01T14:38:54;3.50;;;0.50;;
65077;SDS011;51672;51.230;-2.322;2022-07-01T14:42:49;3.27;;;0.60;;
65077;SDS011;51672;51.230;-2.322;2022-07-01T14:50:48;5.78;;;2.00;;
65077;SDS011;51672;51.230;-2.322;2022-07-01T14:58:42;3.00;;;0.63;;
65077;SDS011;51672;51.230;-2.322;2022-07-01T15:11:04;3.23;;;0.50;;
65077;SDS011;51672;51.230;-2.322;2022-07-01T15:44:31;5.03;;;1.30;;
65077;SDS011;51672;51.230;-2.322;2022-07-01T16:26:28;2.53;;;0.30;;
65077;SDS011;51672;51.230;-2.322;2022-07-01T17:32:56;4.40;;;0.50;;
65077;SDS011;51672;51.230;-2.322;2022-07-01T18:25:56;7.68;;;1.60;;
65077;SDS011;51672;51.230;-2.322;2022-07-01T18:29:55;6.72;;;0.95;;
65077;SDS011;51672;51.230;-2.322;2022-07-01T19:16:17;7.35;;;1.23;;
65077;SDS011;51672;51.230;-2.322;2022-07-01T19:24:25;7.50;;;1.05;;
65077;SDS011;51672;51.230;-2.322;2022-07-01T19:42:32;6.50;;;1.23;;
65077;SDS011;51672;51.230;-2.322;2022-07-01T20:17:08;7.07;;;1.40;;
65077;SDS011;51672;51.230;-2.322;2022-07-01T20:20:51;10.85;;;3.47;;
65077;SDS011;51672;51.230;-2.322;2022-07-01T20:24:44;11.02;;;4.20;;
65077;SDS011;51672;51.230;-2.322;2022-07-01T20:28:27;11.07;;;4.88;;
65077;SDS011;51672;51.230;-2.322;2022-07-01T20:32:09;7.70;;;2.20;;
65077;SDS011;51672;51.230;-2.322;2022-07-01T20:39:41;6.38;;;1.83;;
65077;SDS011;51672;51.230;-2.322;2022-07-01T20:43:24;6.93;;;1.80;;
65077;SDS011;51672;51.230;-2.322;2022-07-01T20:47:06;8.63;;;2.10;;
65077;SDS011;51672;51.230;-2.322;2022-07-01T20:50:48;7.88;;;2.10;;
65077;SDS011;51672;51.230;-2.322;2022-07-01T20:54:30;5.45;;;1.17;;
65077;SDS011;51672;51.230;-2.322;2022-07-01T20:58:14;9.30;;;1.88;;
65077;SDS011;51672;51.230;-2.322;2022-07-01T21:01:56;7.40;;;1.17;;
65077;SDS011;51672;51.230;-2.322;2022-07-01T21:05:38;5.72;;;0.90;;
65077;SDS011;51672;51.230;-2.322;2022-07-01T21:09:20;5.07;;;0.60;;
65077;SDS011;51672;51.230;-2.322;2022-07-01T21:13:02;5.30;;;1.10;;
65077;SDS011;51672;51.230;-2.322;2022-07-01T21:16:44;9.02;;;0.75;;
65077;SDS011;51672;51.230;-2.322;2022-07-01T21:20:27;5.10;;;0.80;;
65077;SDS011;51672;51.230;-2.322;2022-07-01T21:24:09;6.03;;;1.25;;
65077;SDS011;51672;51.230;-2.322;2022-07-01T21:27:51;5.22;;;0.93;;
65077;SDS011;51672;51.230;-2.322;2022-07-01T21:31:33;3.45;;;0.68;;
65077;SDS011;51672;51.230;-2.322;2022-07-01T21:35:15;7.03;;;1.13;;
65077;SDS011;51672;51.230;-2.322;2022-07-01T21:38:57;7.53;;;0.85;;
65077;SDS011;51672;51.230;-2.322;2022-07-01T21:42:40;6.22;;;1.15;;
65077;SDS011;51672;51.230;-2.322;2022-07-01T21:46:22;5.93;;;0.80;;
65077;SDS011;51672;51.230;-2.322;2022-07-01T21:50:07;6.25;;;0.85;;
65077;SDS011;51672;51.230;-2.322;2022-07-01T21:53:50;7.07;;;1.20;;
65077;SDS011;51672;51.230;-2.322;2022-07-01T21:57:35;4.90;;;0.90;;
65077;SDS011;51672;51.230;-2.322;2022-07-01T22:01:18;5.20;;;0.93;;
65077;SDS011;51672;51.230;-2.322;2022-07-01T22:05:01;6.75;;;0.93;;
65077;SDS011;51672;51.230;-2.322;2022-07-01T22:12:26;9.35;;;1.00;;
65077;SDS011;51672;51.230;-2.322;2022-07-01T22:16:10;7.82;;;0.80;;
65077;SDS011;51672;51.230;-2.322;2022-07-01T22:19:52;7.60;;;0.88;;
65077;SDS011;51672;51.230;-2.322;2022-07-01T22:23:36;8.37;;;0.83;;
65077;SDS011;51672;51.230;-2.322;2022-07-01T22:27:24;5.88;;;0.98;;
65077;SDS011;51672;51.230;-2.322;2022-07-01T22:31:10;8.07;;;1.65;;
65077;SDS011;51672;51.230;-2.322;2022-07-01T22:34:56;4.73;;;0.80;;
65077;SDS011;51672;51.230;-2.322;2022-07-01T22:38:40;6.05;;;0.90;;
65077;SDS011;51672;51.230;-2.322;2022-07-01T22:42:24;7.22;;;1.48;;
65077;SDS011;51672;51.230;-2.322;2022-07-01T22:46:16;7.03;;;1.10;;
65077;SDS011;51672;51.230;-2.322;2022-07-01T22:50:12;5.13;;;0.90;;
65077;SDS011;51672;51.230;-2.322;2022-07-01T22:58:48;9.23;;;1.25;;
65077;SDS011;51672;51.230;-2.322;2022-07-01T23:02:39;5.33;;;0.77;;
65077;SDS011;51672;51.230;-2.322;2022-07-01T23:06:24;6.88;;;1.00;;
65077;SDS011;51672;51.230;-2.322;2022-07-01T23:18:21;4.78;;;1.00;;
65077;SDS011;51672;51.230;-2.322;2022-07-01T23:22:04;4.55;;;1.05;;
65077;SDS011;51672;51.230;-2.322;2022-07-01T23:25:53;5.25;;;1.00;;
65077;SDS011;51672;51.230;-2.322;2022-07-01T23:29:37;6.95;;;1.52;;
65077;SDS011;51672;51.230;-2.322;2022-07-01T23:33:22;6.72;;;1.50;;
65077;SDS011;51672;51.230;-2.322;2022-07-01T23:37:05;7.90;;;1.90;;
65077;SDS011;51672;51.230;-2.322;2022-07-01T23:40:49;4.63;;;1.00;;
65077;SDS011;51672;51.230;-2.322;2022-07-01T23:44:51;5.88;;;1.02;;
65077;SDS011;51672;51.230;-2.322;2022-07-01T23:48:33;6.15;;;1.15;;
65077;SDS011;51672;51.230;-2.322;2022-07-01T23:52:16;3.47;;;0.87;;
65077;SDS011;51672;51.230;-2.322;2022-07-01T23:55:58;7.53;;;1.00;;
65077;SDS011;51672;51.230;-2.322;2022-07-01T23:59:40;8.43;;;1.33;;
